createdAt,value
2017-11-30T00:02:35.069Z,256.63
2017-11-30T00:17:34.981Z,247.98
2017-11-30T00:32:35.912Z,220.20
2017-11-30T00:47:35.364Z,199.73
2017-11-30T01:02:36.280Z,197.62
2017-11-30T01:17:34.613Z,174.00
2017-11-30T01:32:36.015Z,158.17
2017-11-30T01:47:36.510Z,176.18
2017-11-30T02:02:34.457Z,250.37
2017-11-30T02:17:34.343Z,221.67
2017-11-30T02:32:34.274Z,216.73
2017-11-30T02:47:34.788Z,260.58
2017-11-30T03:02:36.605Z,220.03
2017-11-30T03:17:34.615Z,241.23
2017-11-30T03:32:34.449Z,237.33
2017-11-30T03:47:37.394Z,202.40
2017-11-30T04:02:35.919Z,205.43
2017-11-30T04:17:35.056Z,231.20
2017-11-30T04:32:34.647Z,258.83
2017-11-30T04:47:35.139Z,307.67
2017-11-30T05:02:35.007Z,263.17
2017-11-30T05:17:37.975Z,234.57
2017-11-30T05:32:35.914Z,188.57
2017-11-30T05:47:34.282Z,163.47
2017-11-30T06:02:35.137Z,166.60
2017-11-30T06:17:35.204Z,152.43
2017-11-30T06:32:35.063Z,166.60
2017-11-30T06:47:37.480Z,122.87
2017-11-30T07:02:34.414Z,132.83
2017-11-30T07:17:34.398Z,136.53
2017-11-30T07:32:33.624Z,136.37
2017-11-30T07:47:35.197Z,116.67
2017-11-30T08:02:34.630Z,113.77
2017-11-30T08:17:34.632Z,102.33
2017-11-30T08:32:34.476Z,102.30
2017-11-30T08:47:34.760Z,97.70
2017-11-30T09:02:34.870Z,102.70
2017-11-30T09:17:34.605Z,81.93
2017-11-30T09:32:34.639Z,69.40
2017-11-30T09:47:34.946Z,46.57
2017-11-30T10:02:35.092Z,44.20
2017-11-30T10:17:35.276Z,28.23
2017-11-30T10:32:34.759Z,27.70
2017-11-30T10:47:36.315Z,30.80
2017-11-30T11:02:34.308Z,36.50
2017-11-30T11:17:34.230Z,29.50
2017-11-30T11:32:35.087Z,26.63
2017-11-30T11:47:34.297Z,66.50
2017-11-30T12:02:34.041Z,89.97
2017-11-30T12:17:34.096Z,49.70
2017-11-30T12:32:34.023Z,26.70
2017-11-30T12:47:34.555Z,25.73
2017-11-30T13:02:34.486Z,23.93
2017-11-30T13:17:34.571Z,30.27
2017-11-30T13:32:34.546Z,79.57
2017-11-30T13:47:34.912Z,132.93
2017-11-30T14:02:34.912Z,180.67
2017-11-30T14:17:34.567Z,188.07
2017-11-30T14:32:34.487Z,162.60
2017-11-30T14:47:35.418Z,142.43
2017-11-30T15:02:34.413Z,131.23
2017-11-30T15:17:34.399Z,121.90
2017-11-30T15:32:34.203Z,128.10
2017-11-30T15:47:34.698Z,101.67
2017-11-30T16:02:36.408Z,78.67
2017-11-30T16:17:34.498Z,83.20
2017-11-30T16:32:34.403Z,85.53
2017-11-30T16:47:32.886Z,83.10
2017-11-30T17:02:34.542Z,80.63
2017-11-30T17:17:37.641Z,72.10
2017-11-30T17:32:34.695Z,94.33
2017-11-30T17:47:36.302Z,81.13
2017-11-30T18:02:33.982Z,68.13
2017-11-30T18:17:34.592Z,54.93
2017-11-30T18:32:34.653Z,36.90
2017-11-30T18:47:37.130Z,36.53
2017-11-30T19:02:36.797Z,35.93
2017-11-30T19:17:36.490Z,35.87
2017-11-30T19:32:34.846Z,33.03
2017-11-30T19:47:35.282Z,28.67
2017-11-30T20:02:37.201Z,24.33
2017-11-30T20:17:35.130Z,19.90
2017-11-30T20:32:35.082Z,19.70
2017-11-30T20:47:34.493Z,7.47
2017-11-30T21:02:35.404Z,9.20
2017-11-30T21:17:35.134Z,14.43
2017-11-30T21:32:34.990Z,8.77
2017-11-30T21:47:34.433Z,6.90
2017-11-30T22:02:34.555Z,3.43
2017-11-30T22:17:34.357Z,3.70
2017-11-30T22:32:36.241Z,4.10
2017-11-30T22:47:36.762Z,7.73
2017-11-30T23:02:34.624Z,11.17
2017-11-30T23:17:34.568Z,7.90
2017-11-30T23:32:37.443Z,3.40
2017-11-30T23:47:34.858Z,10.27
